Time;durP1;ratioP1;P1;durP2;ratioP2;P2;SDS_P1;SDS_P2;PMS_P1;PMS_P2;Temp;Humidity;BMP_temperature;BMP_pressure;BME280_temperature;BME280_humidity;BME280_pressure;Samples;Min_cycle;Max_cycle;Signal;HPM_P1;HPM_P2
2021/05/21 00:00:39;;;;;;;7.70;4.15;;;;;;;8.74;68.32;100499.95;1725964;83;21548;-69
2021/05/21 00:03:07;;;;;;;7.47;3.90;;;;;;;8.76;68.31;100501.98;1726068;82;21052;-69
2021/05/21 00:05:33;;;;;;;6.17;4.70;;;;;;;8.77;68.30;100503.13;1726086;83;20984;-69
2021/05/21 00:08:00;;;;;;;7.00;4.00;;;;;;;8.79;68.30;100495.86;1725984;83;20905;-69
2021/05/21 00:10:26;;;;;;;7.53;4.15;;;;;;;8.80;68.30;100492.19;1726185;83;21024;-69
2021/05/21 00:12:53;;;;;;;12.25;5.05;;;;;;;8.80;68.27;100492.67;1726091;83;21258;-69
2021/05/21 00:15:19;;;;;;;9.68;5.72;;;;;;;8.79;68.29;100495.02;1726117;83;21560;-69
2021/05/21 00:17:45;;;;;;;9.25;5.60;;;;;;;8.77;68.29;100491.66;1726183;83;21111;-69
2021/05/21 00:20:13;;;;;;;10.63;6.03;;;;;;;8.76;68.30;100482.04;1726327;83;20936;-69
2021/05/21 00:22:39;;;;;;;10.58;5.20;;;;;;;8.77;68.33;100486.34;1726423;83;21624;-69
2021/05/21 00:25:07;;;;;;;9.03;6.30;;;;;;;8.74;68.33;100482.67;1726742;83;21191;-69
2021/05/21 00:27:33;;;;;;;16.97;5.50;;;;;;;8.76;68.35;100479.38;1726521;83;21048;-68
2021/05/21 00:29:59;;;;;;;7.05;5.78;;;;;;;8.76;68.36;100484.17;1726646;82;22254;-69
2021/05/21 00:32:25;;;;;;;6.05;4.83;;;;;;;8.76;68.36;100482.04;1726596;83;20909;-69
2021/05/21 00:34:51;;;;;;;9.28;5.55;;;;;;;8.78;68.40;100484.03;1726798;83;21028;-69
2021/05/21 00:37:17;;;;;;;8.85;5.75;;;;;;;8.80;68.43;100478.05;1726596;83;21029;-68
2021/05/21 00:39:43;;;;;;;12.15;5.50;;;;;;;8.83;68.47;100483.08;1726301;83;21615;-69
2021/05/21 00:42:09;;;;;;;8.50;5.28;;;;;;;8.87;68.52;100481.75;1726730;83;20988;-69
2021/05/21 00:44:35;;;;;;;7.85;5.37;;;;;;;8.89;68.53;100479.30;1726408;83;21052;-69
2021/05/21 00:47:01;;;;;;;9.05;4.58;;;;;;;8.88;68.59;100472.79;1726863;83;21662;-68
2021/05/21 00:49:27;;;;;;;7.65;5.33;;;;;;;8.87;68.65;100469.78;1726557;83;21119;-69
2021/05/21 00:51:53;;;;;;;8.15;5.12;;;;;;;8.91;68.73;100473.31;1726655;83;21155;-69
2021/05/21 00:54:19;;;;;;;12.18;5.50;;;;;;;8.93;68.76;100472.67;1726714;83;21593;-69
2021/05/21 00:56:45;;;;;;;7.60;5.37;;;;;;;8.95;68.81;100473.83;1726623;83;20893;-69
2021/05/21 00:59:11;;;;;;;5.53;4.55;;;;;;;8.97;68.89;100468.68;1726888;83;21079;-68
2021/05/21 01:01:37;;;;;;;8.20;4.30;;;;;;;8.98;68.92;100468.19;1726479;82;21106;-68
2021/05/21 01:04:05;;;;;;;7.90;5.03;;;;;;;8.99;68.95;100465.88;1726703;83;21092;-68
2021/05/21 01:06:31;;;;;;;7.00;5.17;;;;;;;8.99;69.03;100465.88;1726726;82;21000;-68
2021/05/21 01:08:57;;;;;;;10.35;5.83;;;;;;;8.99;69.09;100457.90;1726519;82;21933;-69
2021/05/21 01:11:23;;;;;;;11.38;5.25;;;;;;;9.00;69.15;100460.91;1726678;83;21032;-69
2021/05/21 01:13:50;;;;;;;10.35;5.72;;;;;;;9.01;69.20;100459.89;1726808;83;21112;-68
2021/05/21 01:16:16;;;;;;;11.10;6.85;;;;;;;8.99;69.21;100456.56;1725989;82;21080;-69
2021/05/21 01:18:42;;;;;;;9.05;5.85;;;;;;;8.96;69.28;100452.90;1724974;81;21093;-69
2021/05/21 01:21:08;;;;;;;7.92;5.92;;;;;;;8.93;69.33;100448.73;1725914;83;20917;-69
2021/05/21 01:23:34;;;;;;;7.80;5.35;;;;;;;8.91;69.39;100448.05;1724814;83;21025;-68
2021/05/21 01:26:00;;;;;;;8.68;5.67;;;;;;;8.90;69.42;100444.23;1725846;81;21174;-69
2021/05/21 01:28:26;;;;;;;13.62;7.58;;;;;;;8.90;69.45;100445.56;1725728;83;21690;-69
2021/05/21 01:30:52;;;;;;;14.70;8.43;;;;;;;8.87;69.46;100446.69;1725797;83;21040;-69
2021/05/21 01:33:18;;;;;;;13.20;7.90;;;;;;;8.85;69.50;100437.20;1725814;83;21614;-69
2021/05/21 01:35:44;;;;;;;12.82;6.75;;;;;;;8.82;69.52;100433.54;1725504;83;21072;-69
2021/05/21 01:38:13;;;;;;;9.20;5.90;;;;;;;8.79;69.57;100433.86;1725887;83;21805;-69
2021/05/21 01:40:40;;;;;;;10.75;5.62;;;;;;;8.77;69.59;100430.50;1725480;82;21039;-69
2021/05/21 01:43:06;;;;;;;12.85;6.28;;;;;;;8.76;69.64;100424.88;1698828;83;21080;-68
2021/05/21 01:45:32;;;;;;;7.42;5.53;;;;;;;8.74;69.70;100418.86;1725752;83;21040;-69
2021/05/21 01:47:58;;;;;;;8.68;6.42;;;;;;;8.73;69.75;100411.38;1725833;83;21056;-69
2021/05/21 01:50:24;;;;;;;10.93;5.50;;;;;;;8.75;69.79;100415.22;1725739;83;21069;-69
2021/05/21 01:52:50;;;;;;;9.00;6.40;;;;;;;8.77;69.82;100410.56;1725062;83;21064;-68
2021/05/21 01:55:16;;;;;;;8.10;5.78;;;;;;;8.81;69.84;100402.61;1725717;83;20861;-69
2021/05/21 01:57:43;;;;;;;14.25;7.40;;;;;;;8.83;69.89;100400.64;1725618;83;20937;-69
2021/05/21 02:00:12;;;;;;;12.28;6.62;;;;;;;8.84;69.90;100403.63;1725774;83;21057;-69
2021/05/21 02:02:40;;;;;;;10.05;6.53;;;;;;;8.84;69.93;100397.81;1725662;82;21093;-69
2021/05/21 02:05:07;;;;;;;11.90;6.83;;;;;;;8.84;69.96;100391.66;1725576;83;21267;-69
2021/05/21 02:07:34;;;;;;;9.70;6.22;;;;;;;8.84;69.99;100387.66;1725545;83;21084;-69
2021/05/21 02:10:06;;;;;;;16.35;7.35;;;;;;;8.84;70.01;100381.02;1725442;83;21576;-68
2021/05/21 02:12:34;;;;;;;9.78;6.58;;;;;;;8.83;70.04;100381.51;1725319;83;20989;-69
2021/05/21 02:15:06;;;;;;;9.73;5.85;;;;;;;8.82;70.06;100375.87;1725313;83;21952;-69
2021/05/21 02:17:32;;;;;;;11.57;6.00;;;;;;;8.81;70.08;100374.69;1726590;83;21005;-69
2021/05/21 02:19:59;;;;;;;8.05;5.97;;;;;;;8.79;70.15;100375.36;1726601;83;20986;-68
2021/05/21 02:22:25;;;;;;;17.27;6.40;;;;;;;8.79;70.16;100375.36;1726639;82;21576;-69
2021/05/21 02:24:54;;;;;;;11.33;7.40;;;;;;;8.75;70.16;100366.03;1726725;83;21079;-68
2021/05/21 02:27:20;;;;;;;10.38;6.40;;;;;;;8.72;70.21;100362.37;1726631;83;21083;-68
2021/05/21 02:29:46;;;;;;;9.00;6.85;;;;;;;8.70;70.24;100359.02;1726982;83;20877;-69
2021/05/21 02:32:12;;;;;;;9.50;6.72;;;;;;;8.68;70.25;100351.70;1726459;83;21112;-69
2021/05/21 02:34:38;;;;;;;12.20;7.75;;;;;;;8.66;70.26;100351.85;1726887;83;21527;-69
2021/05/21 02:37:04;;;;;;;7.87;5.72;;;;;;;8.63;70.28;100344.69;1726654;83;20885;-69
2021/05/21 02:39:30;;;;;;;9.23;6.65;;;;;;;8.61;70.29;100338.72;1726894;83;21667;-69
2021/05/21 02:41:56;;;;;;;10.23;6.20;;;;;;;8.58;70.31;100336.38;1726717;83;20913;-69
2021/05/21 02:44:22;;;;;;;9.28;6.15;;;;;;;8.57;70.34;100338.69;1726710;83;21611;-69
2021/05/21 02:46:48;;;;;;;10.55;6.80;;;;;;;8.58;70.35;100347.01;1726683;83;21028;-68
2021/05/21 02:49:19;;;;;;;8.15;6.08;;;;;;;8.58;70.37;100343.02;1726558;83;20925;-69
2021/05/21 02:51:42;;;;;;;6.75;5.70;;;;;;;8.61;70.39;100342.70;1726077;83;21016;-68
2021/05/21 02:54:08;;;;;;;9.95;5.78;;;;;;;8.53;70.39;100322.22;1726698;83;21642;-68
2021/05/21 02:56:34;;;;;;;11.35;6.45;;;;;;;8.53;70.39;100322.22;1726807;83;21695;-69
2021/05/21 02:59:00;;;;;;;6.05;5.20;;;;;;;8.65;70.49;100333.42;1726719;83;20901;-69
2021/05/21 03:01:26;;;;;;;9.83;5.42;;;;;;;8.69;70.55;100342.75;1726454;83;21565;-69
2021/05/21 03:03:52;;;;;;;7.87;5.50;;;;;;;8.72;70.57;100339.77;1726614;82;21082;-69
2021/05/21 03:06:18;;;;;;;10.13;6.08;;;;;;;8.74;70.57;100335.11;1726239;83;20984;-69
2021/05/21 03:08:44;;;;;;;7.30;5.28;;;;;;;8.76;70.61;100334.47;1726806;83;21003;-69
2021/05/21 03:11:10;;;;;;;9.20;5.70;;;;;;;8.78;70.61;100329.81;1726354;83;20905;-69
2021/05/21 03:13:36;;;;;;;8.85;5.60;;;;;;;8.81;70.66;100320.19;1726856;83;21602;-68
2021/05/21 03:16:03;;;;;;;7.50;5.83;;;;;;;8.81;70.66;100314.87;1726280;82;21197;-69
2021/05/21 03:18:29;;;;;;;9.60;6.12;;;;;;;8.85;70.68;100317.55;1726317;83;21080;-69
2021/05/21 03:20:55;;;;;;;8.15;5.58;;;;;;;8.86;70.69;100310.75;1726528;83;21010;-69
2021/05/21 03:23:21;;;;;;;9.45;5.50;;;;;;;8.88;70.70;100307.91;1726228;83;20913;-69
2021/05/21 03:25:47;;;;;;;8.85;5.95;;;;;;;8.90;70.72;100310.73;1726838;83;21008;-68
2021/05/21 03:28:13;;;;;;;6.30;5.30;;;;;;;8.92;70.73;100310.59;1726585;83;21108;-69
2021/05/21 03:30:39;;;;;;;8.48;5.53;;;;;;;8.93;70.75;100309.61;1726663;83;20949;-68
2021/05/21 03:33:06;;;;;;;7.83;5.65;;;;;;;8.95;70.75;100306.27;1726552;82;21091;-68
2021/05/21 03:35:35;;;;;;;9.35;5.87;;;;;;;8.96;70.79;100312.77;1726501;83;22035;-69
2021/05/21 03:38:02;;;;;;;11.03;6.30;;;;;;;8.97;70.77;100321.59;1726666;83;21061;-68
2021/05/21 03:40:30;;;;;;;10.23;6.60;;;;;;;8.93;70.78;100323.73;1726738;82;21625;-69
2021/05/21 03:42:57;;;;;;;13.83;6.80;;;;;;;8.93;70.82;100316.25;1726702;83;21044;-69
2021/05/21 03:45:23;;;;;;;17.82;7.50;;;;;;;8.95;70.83;100309.77;1726720;83;21556;-68
2021/05/21 03:47:49;;;;;;;12.85;7.40;;;;;;;8.98;70.85;100310.77;1726661;83;21603;-68
2021/05/21 03:50:18;;;;;;;13.13;7.78;;;;;;;8.99;70.86;100310.28;1726439;83;21063;-68
2021/05/21 03:52:43;;;;;;;8.43;6.05;;;;;;;9.04;70.86;100302.66;1726465;83;21159;-68
2021/05/21 03:55:10;;;;;;;16.93;9.85;;;;;;;9.07;70.86;100295.68;1726424;83;21033;-68
2021/05/21 03:57:37;;;;;;;10.78;6.92;;;;;;;9.14;70.86;100286.55;1726829;83;21100;-69
2021/05/21 04:00:10;;;;;;;9.58;5.92;;;;;;;9.30;70.88;100278.08;1726659;82;21056;-68
2021/05/21 04:02:36;;;;;;;8.05;6.62;;;;;;;9.45;70.83;100273.78;1726304;82;21064;-68
2021/05/21 04:05:03;;;;;;;8.65;6.65;;;;;;;9.60;70.80;100270.45;1726747;82;21025;-68
2021/05/21 04:07:29;;;;;;;7.53;5.90;;;;;;;9.85;70.85;100268.11;1726420;83;21440;-68
2021/05/21 04:09:55;;;;;;;10.23;6.08;;;;;;;10.46;70.71;100264.81;1726592;83;21456;-68
2021/05/21 04:12:21;;;;;;;6.03;5.30;;;;;;;10.22;70.42;100273.72;1726657;83;20897;-69
2021/05/21 04:14:47;;;;;;;9.18;4.97;;;;;;;10.02;70.33;100282.58;1726739;83;21068;-69
2021/05/21 04:17:14;;;;;;;7.72;5.28;;;;;;;9.89;70.35;100281.40;1726509;82;21165;-69
2021/05/21 04:19:40;;;;;;;9.00;5.85;;;;;;;9.77;70.34;100278.77;1726322;83;21056;-68
2021/05/21 04:22:06;;;;;;;10.35;6.10;;;;;;;9.71;70.36;100272.78;1726720;83;20999;-68
2021/05/21 04:24:32;;;;;;;5.75;4.75;;;;;;;9.66;70.36;100271.11;1726473;83;20894;-68
2021/05/21 04:26:58;;;;;;;8.90;6.47;;;;;;;9.64;70.36;100260.61;1726671;83;21587;-69
2021/05/21 04:29:24;;;;;;;8.78;5.78;;;;;;;9.66;70.33;100257.80;1726217;83;21121;-69
2021/05/21 04:31:50;;;;;;;8.03;5.05;;;;;;;9.74;70.33;100263.96;1726571;83;20928;-69
2021/05/21 04:34:16;;;;;;;7.53;4.85;;;;;;;9.93;70.27;100256.93;1726515;83;20853;-68
2021/05/21 04:36:42;;;;;;;7.83;5.47;;;;;;;10.14;70.11;100249.75;1726692;83;20905;-68
2021/05/21 04:39:08;;;;;;;6.05;4.85;;;;;;;10.28;70.04;100255.70;1726850;83;21008;-69
2021/05/21 04:41:34;;;;;;;6.15;4.60;;;;;;;10.63;69.92;100250.41;1726200;83;21055;-68
2021/05/21 04:44:00;;;;;;;6.00;4.28;;;;;;;11.10;69.77;100242.31;1726820;83;20964;-68
2021/05/21 04:46:26;;;;;;;7.87;4.70;;;;;;;11.33;69.64;100253.81;1726473;83;20917;-69
2021/05/21 04:48:52;;;;;;;4.90;3.98;;;;;;;11.74;69.41;100248.17;1726526;83;21065;-69
2021/05/21 04:51:18;;;;;;;7.15;4.72;;;;;;;12.19;69.18;100241.36;1726368;83;20988;-69
2021/05/21 04:53:44;;;;;;;7.72;4.58;;;;;;;12.51;68.99;100236.14;1726220;83;21918;-69
2021/05/21 04:56:11;;;;;;;6.37;3.65;;;;;;;12.93;68.68;100231.39;1726497;83;20885;-69
2021/05/21 04:58:37;;;;;;;8.23;3.80;;;;;;;13.18;68.40;100226.55;1725982;83;21123;-69
2021/05/21 05:01:03;;;;;;;5.97;3.75;;;;;;;13.24;68.11;100223.92;1726595;83;21040;-69
2021/05/21 05:03:30;;;;;;;7.83;4.50;;;;;;;13.08;67.85;100217.46;1726538;82;21052;-69
2021/05/21 05:05:56;;;;;;;8.40;4.20;;;;;;;12.88;67.63;100225.27;1726395;83;22249;-68
2021/05/21 05:08:22;;;;;;;4.47;3.83;;;;;;;12.65;67.42;100207.70;1726337;83;21048;-69
2021/05/21 05:10:49;;;;;;;5.42;3.08;;;;;;;12.38;67.15;100207.39;1726625;83;21122;-69
2021/05/21 05:13:18;;;;;;;6.40;4.67;;;;;;;12.24;66.99;100210.91;1726630;83;21616;-69
2021/05/21 05:15:48;;;;;;;5.60;4.33;;;;;;;12.12;66.80;100211.54;1726911;83;21021;-69
2021/05/21 05:18:15;;;;;;;7.15;4.12;;;;;;;11.96;66.64;100208.02;1725793;83;21062;-69
2021/05/21 05:20:43;;;;;;;5.37;4.05;;;;;;;11.95;66.58;100212.23;1725026;83;21476;-69
2021/05/21 05:23:11;;;;;;;7.30;4.55;;;;;;;12.25;66.41;100209.04;1673205;85;21060;-69
2021/05/21 05:25:41;;;;;;;6.65;4.12;;;;;;;12.86;66.17;100210.42;1725230;83;21619;-69
2021/05/21 05:28:08;;;;;;;5.92;3.42;;;;;;;13.53;65.92;100207.39;1725344;83;21048;-70
2021/05/21 05:30:35;;;;;;;4.90;4.00;;;;;;;14.08;65.57;100203.86;1725678;83;21576;-70
2021/05/21 05:33:02;;;;;;;6.47;3.25;;;;;;;14.42;65.31;100199.36;1673233;85;21052;-69
2021/05/21 05:35:29;;;;;;;5.45;3.50;;;;;;;14.58;65.04;100189.28;1724921;83;21632;-70
2021/05/21 05:37:56;;;;;;;4.62;2.95;;;;;;;15.02;64.75;100192.32;1701577;83;21621;-70
2021/05/21 05:40:23;;;;;;;5.95;3.50;;;;;;;14.93;64.43;100193.02;1701067;83;21048;-69
2021/05/21 05:42:50;;;;;;;4.53;3.70;;;;;;;14.56;64.30;100187.33;1720327;81;21626;-70
2021/05/21 05:45:17;;;;;;;4.58;2.95;;;;;;;14.10;64.08;100171.81;1711045;83;21102;-70
2021/05/21 05:47:44;;;;;;;4.08;3.67;;;;;;;14.21;63.91;100161.88;1710876;83;21049;-70
2021/05/21 05:50:11;;;;;;;4.37;3.05;;;;;;;15.00;63.68;100183.11;1712007;83;21457;-70
2021/05/21 05:52:38;;;;;;;6.65;3.60;;;;;;;15.52;63.31;100174.00;1673184;85;21596;-70
2021/05/21 05:55:06;;;;;;;4.87;2.58;;;;;;;15.63;63.03;100174.70;1672584;85;21749;-70
2021/05/21 05:57:33;;;;;;;3.65;3.17;;;;;;;15.59;62.58;100168.08;1720172;83;21171;-70
2021/05/21 06:00:00;;;;;;;5.00;2.98;;;;;;;15.43;62.11;100167.45;1712454;83;21064;-70
2021/05/21 06:02:27;;;;;;;5.85;2.90;;;;;;;15.72;61.92;100160.85;1702825;81;21102;-70
2021/05/21 06:04:54;;;;;;;7.47;3.45;;;;;;;16.09;61.51;100160.66;1712189;83;21616;-70
2021/05/21 06:07:21;;;;;;;4.83;2.70;;;;;;;16.30;61.06;100155.00;1711449;83;21718;-70
2021/05/21 06:09:48;;;;;;;7.83;3.60;;;;;;;16.48;60.61;100150.27;1709086;83;21094;-70
2021/05/21 06:12:15;;;;;;;5.05;3.35;;;;;;;16.79;60.34;100158.93;1718105;83;21018;-70
2021/05/21 06:14:42;;;;;;;4.22;2.72;;;;;;;16.98;59.91;100149.92;1707557;83;21107;-70
2021/05/21 06:17:09;;;;;;;3.90;2.30;;;;;;;17.22;59.64;100149.11;1719191;83;21056;-70
2021/05/21 06:19:36;;;;;;;4.97;3.70;;;;;;;17.46;59.34;100152.34;1682269;85;21136;-71
2021/05/21 06:22:03;;;;;;;5.58;3.00;;;;;;;17.47;58.81;100145.08;1672252;85;21620;-70
2021/05/21 06:24:30;;;;;;;3.22;2.25;;;;;;;17.57;58.51;100140.55;1716018;81;21066;-70
2021/05/21 06:27:18;;;;;;;3.70;2.40;;;;;;;17.61;58.13;100140.42;1719760;81;21600;-70
2021/05/21 06:29:45;;;;;;;3.17;2.50;;;;;;;17.80;57.86;100138.06;1713426;83;21096;-70
2021/05/21 06:32:12;;;;;;;5.15;3.33;;;;;;;17.82;57.45;100142.70;1704254;83;21077;-70
2021/05/21 06:34:39;;;;;;;6.80;3.60;;;;;;;17.91;57.23;100137.30;1709640;83;21078;-69
2021/05/21 06:37:06;;;;;;;7.28;3.60;;;;;;;17.95;56.90;100130.41;1708330;83;21046;-71
2021/05/21 06:39:33;;;;;;;4.60;3.00;;;;;;;18.00;56.70;100129.23;1711770;83;21631;-70
2021/05/21 06:42:00;;;;;;;5.83;3.10;;;;;;;18.18;56.58;100131.09;1710998;81;21075;-70
2021/05/21 06:44:27;;;;;;;18.75;12.25;;;;;;;18.25;56.32;100121.05;1715574;83;21074;-70
2021/05/21 06:46:58;;;;;;;4.55;3.62;;;;;;;18.33;56.08;100120.75;1714618;83;21068;-70
2021/05/21 06:49:24;;;;;;;3.93;2.63;;;;;;;18.42;55.89;100113.97;1712262;81;21127;-70
2021/05/21 06:51:52;;;;;;;4.20;2.45;;;;;;;18.48;55.67;100109.83;1647360;86;21034;-70
2021/05/21 06:54:19;;;;;;;5.17;3.15;;;;;;;18.65;55.45;100098.41;1648619;84;21076;-70
2021/05/21 06:56:45;;;;;;;5.40;2.85;;;;;;;18.68;55.30;100097.41;1647051;85;21046;-70
2021/05/21 06:59:12;;;;;;;4.90;2.27;;;;;;;18.86;55.05;100096.53;1711668;83;21109;-70
2021/05/21 07:01:39;;;;;;;7.58;2.50;;;;;;;18.91;54.80;100084.52;1717344;82;21081;-70
2021/05/21 07:04:06;;;;;;;3.35;2.20;;;;;;;18.99;54.63;100089.59;1706534;83;21600;-70
2021/05/21 07:06:33;;;;;;;8.05;2.00;;;;;;;18.85;54.35;100082.74;1716319;83;21077;-69
2021/05/21 07:09:01;;;;;;;3.98;2.17;;;;;;;18.55;54.02;100085.98;1718440;82;21125;-70
2021/05/21 07:11:28;;;;;;;4.15;1.98;;;;;;;18.15;53.78;100081.63;1712697;83;21708;-70
2021/05/21 07:13:55;;;;;;;4.25;1.60;;;;;;;17.97;53.77;100085.16;1713625;83;21079;-70
2021/05/21 07:16:22;;;;;;;3.47;2.20;;;;;;;18.01;53.81;100080.13;1711078;83;21098;-69
2021/05/21 07:18:49;;;;;;;4.17;1.60;;;;;;;18.12;53.63;100070.73;1695719;83;21056;-70
2021/05/21 07:21:16;;;;;;;2.92;1.87;;;;;;;18.32;53.51;100056.47;1697846;84;21098;-70
2021/05/21 07:23:43;;;;;;;3.67;1.82;;;;;;;18.64;53.47;100064.36;1696831;84;21097;-69
2021/05/21 07:26:10;;;;;;;3.92;2.02;;;;;;;18.89;53.14;100054.20;1693965;84;21043;-70
2021/05/21 07:28:37;;;;;;;3.67;1.67;;;;;;;19.00;52.77;100050.67;1697066;84;21959;-70
2021/05/21 07:31:04;;;;;;;3.77;2.60;;;;;;;19.20;52.63;100040.89;1648484;86;21073;-70
2021/05/21 07:33:32;;;;;;;2.67;1.92;;;;;;;19.44;52.48;100039.34;1697034;84;21487;-70
2021/05/21 07:36:01;;;;;;;3.52;1.72;;;;;;;19.47;52.03;100043.44;1697982;83;21107;-70
2021/05/21 07:38:28;;;;;;;2.80;1.60;;;;;;;19.51;51.55;100039.21;1697875;84;21606;-70
2021/05/21 07:40:55;;;;;;;1.82;1.40;;;;;;;19.63;51.47;100041.38;1697212;84;21118;-70
2021/05/21 07:43:22;;;;;;;3.15;2.33;;;;;;;19.42;51.32;100029.82;1693729;84;21051;-70
2021/05/21 07:45:49;;;;;;;8.00;2.22;;;;;;;19.40;51.36;100031.36;1697498;84;21103;-70
2021/05/21 07:48:16;;;;;;;4.45;2.62;;;;;;;19.65;51.22;100026.25;1698076;83;21240;-70
2021/05/21 07:50:43;;;;;;;2.75;2.20;;;;;;;19.60;50.93;100020.75;1697268;83;21610;-69
2021/05/21 07:53:10;;;;;;;4.83;1.20;;;;;;;19.44;50.50;100014.16;1698103;84;21067;-70
2021/05/21 07:55:38;;;;;;;2.58;1.40;;;;;;;19.29;50.15;100015.97;1692852;84;21013;-70
2021/05/21 07:58:07;;;;;;;3.37;1.12;;;;;;;19.08;50.04;100011.67;1696793;84;21051;-69
2021/05/21 08:00:34;;;;;;;2.35;1.22;;;;;;;19.01;50.15;100010.44;1696807;84;21039;-70
2021/05/21 08:03:01;;;;;;;1.15;0.90;;;;;;;19.52;50.18;100007.58;1696904;84;21111;-69
2021/05/21 08:05:28;;;;;;;2.85;0.98;;;;;;;19.82;49.81;99996.03;1698304;84;21047;-70
2021/05/21 08:07:55;;;;;;;6.42;0.90;;;;;;;19.82;49.46;99997.38;1697472;84;21080;-70
2021/05/21 08:10:23;;;;;;;0.85;0.70;;;;;;;20.12;49.22;99985.81;1696747;84;21055;-70
2021/05/21 08:12:50;;;;;;;4.25;1.22;;;;;;;20.23;48.42;99985.47;1695865;84;21124;-70
2021/05/21 08:15:17;;;;;;;1.67;0.80;;;;;;;20.42;48.20;99987.75;1696972;84;21079;-70
2021/05/21 08:17:44;;;;;;;2.90;1.00;;;;;;;20.42;47.77;99976.91;1696562;83;21567;-70
2021/05/21 08:20:12;;;;;;;2.65;0.93;;;;;;;20.10;47.12;99973.03;1702831;83;21070;-70
2021/05/21 08:22:40;;;;;;;3.90;1.17;;;;;;;19.94;46.92;99977.35;1706527;83;21098;-70
2021/05/21 08:25:08;;;;;;;6.47;5.03;;;;;;;20.01;46.93;99974.50;1703179;83;21103;-70
2021/05/21 08:27:35;;;;;;;3.17;1.00;;;;;;;20.21;46.97;99969.45;1717710;83;21568;-70
2021/05/21 08:30:04;;;;;;;3.00;1.10;;;;;;;20.18;46.80;99964.53;1722059;83;21057;-70
2021/05/21 08:32:31;;;;;;;1.85;0.85;;;;;;;20.15;46.59;99962.31;1718445;83;21777;-70
2021/05/21 08:34:58;;;;;;;2.47;0.70;;;;;;;20.15;46.26;99967.73;1714504;83;21503;-70
2021/05/21 08:37:25;;;;;;;2.72;0.98;;;;;;;20.41;46.16;99951.41;1711467;83;21111;-69
2021/05/21 08:39:52;;;;;;;4.28;1.02;;;;;;;20.52;45.89;99951.05;1701411;83;21030;-70
2021/05/21 08:42:19;;;;;;;1.75;1.02;;;;;;;20.62;45.77;99941.20;1720399;82;21213;-70
2021/05/21 08:44:49;;;;;;;4.12;0.85;;;;;;;20.49;45.70;99938.82;1711194;83;21527;-70
2021/05/21 08:47:16;;;;;;;2.87;1.17;;;;;;;20.41;45.54;99929.20;1704368;83;21092;-69
2021/05/21 08:49:44;;;;;;;2.90;0.82;;;;;;;20.52;45.32;99930.20;1701561;83;21112;-70
2021/05/21 08:52:11;;;;;;;1.57;0.95;;;;;;;20.56;44.95;99927.81;1718279;83;21088;-69
2021/05/21 08:54:38;;;;;;;0.98;0.57;;;;;;;20.48;44.62;99928.25;1710813;83;21103;-70
2021/05/21 08:57:09;;;;;;;1.67;0.80;;;;;;;20.55;43.88;99924.84;1708627;83;21040;-70
2021/05/21 08:59:37;;;;;;;3.33;0.88;;;;;;;20.38;43.25;99920.22;1710205;83;21068;-70
2021/05/21 09:02:06;;;;;;;3.80;0.70;;;;;;;19.81;42.88;99912.66;1716865;83;21657;-70
2021/05/21 09:04:45;;;;;;;1.67;0.65;;;;;;;19.78;43.00;99917.73;1709101;83;21044;-70
2021/05/21 09:07:26;;;;;;;4.40;1.15;;;;;;;20.01;42.86;99914.94;1709217;83;21076;-70
2021/05/21 09:09:54;;;;;;;2.25;0.70;;;;;;;20.30;43.02;99901.66;1705555;83;21060;-70
2021/05/21 09:12:23;;;;;;;0.75;0.60;;;;;;;20.63;42.97;99912.22;1709943;83;21073;-70
2021/05/21 09:15:12;;;;;;;2.33;0.70;;;;;;;20.67;42.79;99907.95;1715681;83;21079;-70
2021/05/21 09:17:54;;;;;;;;;;;;;;;20.66;42.64;99906.30;1711401;82;21481;-70
2021/05/21 09:20:39;;;;;;;2.62;0.60;;;;;;;20.21;42.66;99899.05;1687464;84;20270;-70
2021/05/21 09:23:17;;;;;;;2.20;0.70;;;;;;;19.78;42.61;99901.50;1669352;84;21465;-70
2021/05/21 09:25:51;;;;;;;2.58;0.82;;;;;;;19.47;42.63;99885.73;1652018;85;21062;-69
2021/05/21 09:28:40;;;;;;;1.45;0.78;;;;;;;19.70;42.97;99874.29;1670174;85;21163;-70
2021/05/21 09:31:11;;;;;;;0.88;0.55;;;;;;;20.02;42.89;99867.83;1717616;83;21063;-70
2021/05/21 09:33:42;;;;;;;3.72;1.22;;;;;;;19.99;42.61;99872.38;1709789;83;21163;-69
2021/05/21 09:36:09;;;;;;;1.32;0.55;;;;;;;19.65;42.53;99859.33;1712269;83;21080;-69
2021/05/21 09:38:51;;;;;;;3.90;0.50;;;;;;;19.54;42.76;99864.78;1681737;84;21438;-70
2021/05/21 09:41:18;;;;;;;3.83;0.60;;;;;;;19.89;42.91;99862.73;1713542;83;21673;-70
2021/05/21 09:43:52;;;;;;;1.98;0.82;;;;;;;20.33;42.61;99853.80;1718840;83;21065;-70
2021/05/21 09:46:19;;;;;;;3.02;0.85;;;;;;;20.61;42.23;99853.39;1723055;83;21608;-70
2021/05/21 09:48:47;;;;;;;4.70;0.75;;;;;;;21.06;42.16;99849.96;1728292;83;21594;-70
2021/05/21 09:51:16;;;;;;;5.80;0.75;;;;;;;21.26;41.59;99848.87;1728353;83;21726;-70
2021/05/21 09:53:47;;;;;;;3.08;0.90;;;;;;;21.20;41.06;99844.48;1703696;83;21031;-70
2021/05/21 09:56:24;;;;;;;1.70;0.85;;;;;;;21.26;41.11;99838.56;1718341;83;21032;-70
2021/05/21 09:58:52;;;;;;;4.78;1.10;;;;;;;21.30;40.78;99843.23;1699479;84;21048;-70
2021/05/21 10:01:21;;;;;;;2.87;0.50;;;;;;;21.03;39.55;99833.37;1710675;83;21032;-70
2021/05/21 10:03:52;;;;;;;1.00;0.40;;;;;;;20.90;39.45;99827.77;1727210;81;22350;-69
2021/05/21 10:06:20;;;;;;;2.87;0.95;;;;;;;20.99;39.66;99809.19;1719684;82;21067;-69
2021/05/21 10:08:48;;;;;;;2.67;0.60;;;;;;;21.01;39.23;99822.77;1711306;83;21585;-69
2021/05/21 10:11:16;;;;;;;1.67;0.55;;;;;;;21.06;39.14;99812.00;1715212;83;21623;-70
2021/05/21 10:13:45;;;;;;;2.72;0.50;;;;;;;21.21;39.18;99819.00;1711067;83;21662;-70
2021/05/21 10:16:15;;;;;;;4.83;0.80;;;;;;;21.19;38.74;99821.13;1727975;83;21115;-69
2021/05/21 10:18:44;;;;;;;;;;;;;;;20.94;38.56;99809.41;1729701;82;21016;-69
2021/05/21 10:21:11;;;;;;;7.78;2.95;;;;;;;20.82;38.40;99805.19;1726078;82;20649;-69
2021/05/21 10:23:42;;;;;;;4.85;1.30;;;;;;;20.91;38.33;99807.73;1704990;82;21088;-69
2021/05/21 10:26:15;;;;;;;1.07;0.60;;;;;;;21.03;38.24;99800.30;1716960;82;21022;-70
2021/05/21 10:28:44;;;;;;;3.40;0.82;;;;;;;20.96;37.84;99791.55;1710473;82;21022;-70
2021/05/21 10:31:13;;;;;;;4.35;1.52;;;;;;;20.74;37.93;99804.25;1732079;82;21047;-70
2021/05/21 10:33:43;;;;;;;1.87;0.60;;;;;;;20.30;38.21;99798.73;1733953;82;21035;-70
2021/05/21 10:36:28;;;;;;;3.77;0.75;;;;;;;20.27;38.49;99805.16;1734325;82;21568;-70
2021/05/21 10:39:20;;;;;;;2.98;0.93;;;;;;;20.46;37.92;99794.38;1734333;82;21031;-70
2021/05/21 10:41:57;;;;;;;2.67;0.90;;;;;;;20.60;37.45;99789.42;1734453;82;21622;-70
2021/05/21 10:44:38;;;;;;;7.58;0.75;;;;;;;20.85;37.25;99789.23;1732704;82;21067;-70
2021/05/21 10:47:23;;;;;;;9.03;1.00;;;;;;;20.94;36.62;99777.41;1733960;82;21048;-70
2021/05/21 10:50:05;;;;;;;2.62;1.15;;;;;;;20.97;36.32;99783.67;1728979;82;21078;-70
2021/05/21 10:52:56;;;;;;;3.60;0.82;;;;;;;20.92;36.43;99764.65;1715728;82;21560;-70
2021/05/21 10:55:54;;;;;;;1.42;0.90;;;;;;;20.85;36.61;99774.33;1732498;82;21147;-70
2021/05/21 10:58:29;;;;;;;6.75;0.57;;;;;;;20.83;36.71;99774.28;1732632;82;21048;-70
2021/05/21 11:01:17;;;;;;;2.35;0.57;;;;;;;21.00;36.55;99769.64;1710876;82;21057;-70
2021/05/21 11:04:03;;;;;;;1.50;0.57;;;;;;;21.02;36.32;99756.63;1732710;82;21052;-70
2021/05/21 11:06:32;;;;;;;1.72;1.25;;;;;;;21.10;36.55;99744.02;1710615;82;21028;-70
2021/05/21 11:09:02;;;;;;;2.77;0.75;;;;;;;21.35;36.79;99745.65;1732609;82;21690;-70
2021/05/21 11:11:49;;;;;;;;;;;;;;;21.49;36.60;99735.73;1735315;82;21048;-70
2021/05/21 11:14:41;;;;;;;1.95;0.42;;;;;;;21.59;36.37;99746.14;1715902;82;20239;-70
2021/05/21 11:17:15;;;;;;;6.53;0.70;;;;;;;21.72;36.05;99740.28;1688537;85;21075;-70
2021/05/21 11:19:45;;;;;;;3.72;0.57;;;;;;;21.61;34.95;99724.16;1696163;83;21022;-70
2021/05/21 11:22:28;;;;;;;0.88;0.55;;;;;;;21.46;34.84;99740.32;1697603;84;21049;-70
2021/05/21 11:25:02;;;;;;;7.53;2.67;;;;;;;21.33;34.79;99741.00;1642762;87;21698;-70
2021/05/21 11:27:31;;;;;;;4.12;0.88;;;;;;;21.21;34.81;99747.13;1669874;85;21668;-70
2021/05/21 11:30:01;;;;;;;6.35;1.32;;;;;;;21.29;34.97;99737.69;1656239;85;21121;-70
2021/05/21 11:32:28;;;;;;;4.10;0.80;;;;;;;21.35;35.21;99748.36;1656741;85;21056;-70
2021/05/21 11:34:55;;;;;;;1.95;0.70;;;;;;;21.39;35.38;99738.61;1669801;85;21087;-70